Time;durP1;ratioP1;P1;durP2;ratioP2;P2;SDS_P1;SDS_P2;PMS_P1;PMS_P2;Temp;Humidity;BMP_temperature;BMP_pressure;BME280_temperature;BME280_humidity;BME280_pressure;Samples;Min_cycle;Max_cycle;Signal;HPM_P1;HPM_P2
2022/04/10 03:06:08;;;;;;;1999.90;999.90;;;;;;;;;;5922580;22;20267;-68
2022/04/10 03:08:54;;;;;;;1999.90;999.90;;;;;;;;;;5021555;28;20430;-69
2022/04/10 03:11:39;;;;;;;1999.90;999.90;;;;;;;;;;5032735;28;20213;-69
2022/04/10 03:14:24;;;;;;;1999.90;999.90;;;;;;;;;;5032862;28;20214;-66
2022/04/10 03:17:09;;;;;;;1999.90;999.90;;;;;;;;;;5026477;28;20342;-68
2022/04/10 03:19:54;;;;;;;1999.90;999.90;;;;;;;;;;5019451;28;20576;-68
2022/04/10 03:22:40;;;;;;;1999.90;999.90;;;;;;;;;;5028370;28;20292;-69
2022/04/10 03:25:25;;;;;;;1999.90;999.90;;;;;;;;;;5027449;28;20227;-69
2022/04/10 03:28:10;;;;;;;1999.90;999.90;;;;;;;;;;5024117;28;20300;-69
2022/04/10 03:30:58;;;;;;;1999.90;999.90;;;;;;;;;;5012427;28;20313;-69
2022/04/10 03:33:43;;;;;;;1999.90;999.90;;;;;;;;;;5026251;28;20213;-69
2022/04/10 03:36:28;;;;;;;1999.90;999.90;;;;;;;;;;5032354;28;20234;-68
2022/04/10 03:39:14;;;;;;;1999.90;999.90;;;;;;;;;;5013299;28;20211;-69
2022/04/10 03:42:01;;;;;;;1999.90;999.90;;;;;;;;;;5012337;28;20206;-68
2022/04/10 03:44:46;;;;;;;1999.90;999.90;;;;;;;;;;5017116;28;20574;-67
2022/04/10 03:47:31;;;;;;;1999.90;999.90;;;;;;;;;;5032217;28;20230;-69
2022/04/10 03:50:16;;;;;;;1999.90;999.90;;;;;;;;;;5031903;28;20245;-69
2022/04/10 03:53:01;;;;;;;1999.90;999.90;;;;;;;;;;5032126;28;20703;-69
2022/04/10 03:55:48;;;;;;;1999.90;999.90;;;;;;;;;;5030996;28;20901;-66
2022/04/10 03:58:33;;;;;;;1999.90;999.90;;;;;;;;;;5031285;28;20206;-65
2022/04/10 04:01:18;;;;;;;1999.90;999.90;;;;;;;;;;5032196;28;20209;-67
2022/04/10 04:04:03;;;;;;;1999.90;999.90;;;;;;;;;;5032186;28;20406;-68
2022/04/10 04:06:48;;;;;;;1999.90;999.90;;;;;;;;;;5031947;28;20332;-68
2022/04/10 04:09:33;;;;;;;1999.90;999.90;;;;;;;;;;5030849;28;20221;-68
2022/04/10 04:12:19;;;;;;;1999.90;999.90;;;;;;;;;;5031952;28;20677;-68
2022/04/10 04:15:04;;;;;;;1999.90;999.90;;;;;;;;;;5019254;28;20538;-67
2022/04/10 04:17:49;;;;;;;1999.90;999.90;;;;;;;;;;5011435;28;20338;-66
2022/04/10 04:20:34;;;;;;;1999.90;999.90;;;;;;;;;;5011654;28;20694;-67
2022/04/10 04:23:19;;;;;;;1999.90;999.90;;;;;;;;;;5027854;28;20288;-68
2022/04/10 04:26:05;;;;;;;1999.90;999.90;;;;;;;;;;5030837;28;20245;-68
2022/04/10 04:28:51;;;;;;;1999.90;999.90;;;;;;;;;;5011988;28;20688;-68
2022/04/10 04:31:36;;;;;;;1999.90;999.90;;;;;;;;;;5011777;28;20436;-67
2022/04/10 04:34:22;;;;;;;1999.90;999.90;;;;;;;;;;5011663;28;20448;-68
2022/04/10 04:37:07;;;;;;;1999.90;999.90;;;;;;;;;;5012673;28;20758;-67
2022/04/10 04:39:52;;;;;;;1999.90;999.90;;;;;;;;;;5021114;28;20388;-67
2022/04/10 04:42:37;;;;;;;1999.90;999.90;;;;;;;;;;5031448;28;20206;-67
2022/04/10 04:45:24;;;;;;;1999.90;999.90;;;;;;;;;;5012105;28;20221;-68
2022/04/10 04:48:09;;;;;;;1999.90;999.90;;;;;;;;;;5011209;28;20206;-68
2022/04/10 04:50:53;;;;;;;1999.90;999.90;;;;;;;;;;5011711;28;20771;-67
2022/04/10 04:53:38;;;;;;;1999.90;999.90;;;;;;;;;;5012052;28;20415;-67
2022/04/10 04:56:23;;;;;;;1999.90;999.90;;;;;;;;;;5025006;28;20440;-67
2022/04/10 04:59:08;;;;;;;1999.90;999.90;;;;;;;;;;5030827;28;20202;-68
2022/04/10 05:01:55;;;;;;;1999.90;999.90;;;;;;;;;;5031592;28;20417;-67
2022/04/10 05:04:40;;;;;;;1999.90;999.90;;;;;;;;;;5031745;28;20427;-67
2022/04/10 05:07:25;;;;;;;1999.90;999.90;;;;;;;;;;5031356;28;20958;-66
2022/04/10 05:10:10;;;;;;;1999.90;999.90;;;;;;;;;;5030799;28;20517;-67
2022/04/10 05:12:55;;;;;;;1999.90;999.90;;;;;;;;;;5030073;28;21301;-67
2022/04/10 05:15:40;;;;;;;1999.90;999.90;;;;;;;;;;5031421;28;20225;-66
2022/04/10 05:18:26;;;;;;;1999.90;999.90;;;;;;;;;;5030578;28;20501;-67
2022/04/10 05:21:11;;;;;;;1999.90;999.90;;;;;;;;;;5032921;28;20455;-67
2022/04/10 05:23:56;;;;;;;1999.90;999.90;;;;;;;;;;5034871;28;20209;-67
2022/04/10 05:26:42;;;;;;;1999.90;999.90;;;;;;;;;;5033493;28;20889;-65
2022/04/10 05:29:27;;;;;;;1999.90;999.90;;;;;;;;;;5033771;28;20229;-68
2022/04/10 05:32:12;;;;;;;1999.90;999.90;;;;;;;;;;5034436;28;20202;-68
2022/04/10 05:34:58;;;;;;;1999.90;999.90;;;;;;;;;;5034678;28;20213;-68
2022/04/10 05:37:43;;;;;;;1999.90;999.90;;;;;;;;;;5034065;28;20283;-68
2022/04/10 05:40:28;;;;;;;1999.90;999.90;;;;;;;;;;5029710;28;20221;-68
2022/04/10 05:43:13;;;;;;;1999.90;999.90;;;;;;;;;;5019831;28;20273;-68
2022/04/10 05:45:58;;;;;;;1999.90;999.90;;;;;;;;;;5015421;28;20488;-69
2022/04/10 05:48:43;;;;;;;1999.90;999.90;;;;;;;;;;5021414;28;20205;-69
2022/04/10 05:51:29;;;;;;;1999.90;999.90;;;;;;;;;;5034094;28;20720;-68
2022/04/10 05:54:14;;;;;;;1999.90;999.90;;;;;;;;;;5021115;28;20246;-66
2022/04/10 05:56:59;;;;;;;1999.90;999.90;;;;;;;;;;5027685;28;20460;-68
2022/04/10 05:59:44;;;;;;;1999.90;999.90;;;;;;;;;;5013738;28;20206;-67
2022/04/10 06:02:29;;;;;;;1999.90;999.90;;;;;;;;;;5023690;28;20285;-68
2022/04/10 06:05:14;;;;;;;1999.90;999.90;;;;;;;;;;5034116;28;20207;-68
2022/04/10 06:08:00;;;;;;;1999.90;999.90;;;;;;;;;;5033421;28;20211;-68
2022/04/10 06:10:45;;;;;;;1999.90;999.90;;;;;;;;;;5026902;28;20536;-69
2022/04/10 06:13:30;;;;;;;1999.90;999.90;;;;;;;;;;5022299;28;20215;-68
2022/04/10 06:16:14;;;;;;;1999.90;999.90;;;;;;;;;;5013303;28;20349;-68
2022/04/10 06:18:59;;;;;;;1999.90;999.90;;;;;;;;;;5029111;28;20234;-68
2022/04/10 06:21:44;;;;;;;1999.90;999.90;;;;;;;;;;5031938;28;20203;-68
2022/04/10 06:24:31;;;;;;;1999.90;999.90;;;;;;;;;;5031698;28;20795;-68
2022/04/10 06:27:16;;;;;;;1999.90;999.90;;;;;;;;;;5031673;28;20604;-68
2022/04/10 06:30:01;;;;;;;1999.90;999.90;;;;;;;;;;5015981;28;20485;-68
2022/04/10 06:32:46;;;;;;;1999.90;999.90;;;;;;;;;;5013234;28;20262;-68
2022/04/10 06:35:30;;;;;;;1999.90;999.90;;;;;;;;;;5013049;28;20288;-69
2022/04/10 06:38:15;;;;;;;1999.90;999.90;;;;;;;;;;5028044;28;20218;-68
2022/04/10 06:41:02;;;;;;;1999.90;999.90;;;;;;;;;;5018577;28;20338;-67
2022/04/10 06:43:47;;;;;;;1999.90;999.90;;;;;;;;;;5022110;28;20688;-68
2022/04/10 06:46:32;;;;;;;1999.90;999.90;;;;;;;;;;5024498;28;20281;-68
2022/04/10 06:49:18;;;;;;;1999.90;999.90;;;;;;;;;;5018381;28;20703;-68
2022/04/10 06:52:03;;;;;;;1999.90;999.90;;;;;;;;;;5023823;28;20264;-67
2022/04/10 06:54:48;;;;;;;1999.90;999.90;;;;;;;;;;5022007;28;20206;-68
2022/04/10 06:57:34;;;;;;;1999.90;999.90;;;;;;;;;;5012076;28;20938;-67
2022/04/10 07:00:19;;;;;;;1999.90;999.90;;;;;;;;;;5012068;28;20285;-68
2022/04/10 07:03:04;;;;;;;1999.90;999.90;;;;;;;;;;5025070;28;20217;-67
2022/04/10 07:05:49;;;;;;;1999.90;999.90;;;;;;;;;;5017683;28;20733;-68
2022/04/10 07:08:36;;;;;;;1999.90;999.90;;;;;;;;;;5016093;28;20221;-68
2022/04/10 07:11:22;;;;;;;1999.90;999.90;;;;;;;;;;5018502;28;20218;-67
2022/04/10 07:14:08;;;;;;;1999.90;999.90;;;;;;;;;;5019239;28;20579;-68
2022/04/10 07:16:53;;;;;;;1999.90;999.90;;;;;;;;;;5018805;28;20226;-67
2022/04/10 07:19:38;;;;;;;1999.90;999.90;;;;;;;;;;5028764;28;20208;-67
2022/04/10 07:25:27;;;;;;;1999.90;999.90;;;;;;;;;;5012545;28;20244;-67
2022/04/10 07:28:12;;;;;;;1999.90;999.90;;;;;;;;;;5013239;28;20411;-68
2022/04/10 07:30:58;;;;;;;1999.90;999.90;;;;;;;;;;5013678;28;20299;-67
2022/04/10 07:33:43;;;;;;;1999.90;999.90;;;;;;;;;;5027300;28;20581;-67
2022/04/10 07:36:28;;;;;;;1999.90;999.90;;;;;;;;;;5024602;28;20226;-67
2022/04/10 07:39:13;;;;;;;1999.90;999.90;;;;;;;;;;5020706;28;20228;-67
2022/04/10 07:41:58;;;;;;;1999.90;999.90;;;;;;;;;;5012362;28;20771;-67
2022/04/10 07:44:43;;;;;;;1999.90;999.90;;;;;;;;;;5011718;28;20254;-67
2022/04/10 07:47:31;;;;;;;1999.90;999.90;;;;;;;;;;5012236;28;20322;-68
2022/04/10 07:50:16;;;;;;;1999.90;999.90;;;;;;;;;;5012125;28;20358;-67
2022/04/10 07:53:02;;;;;;;1999.90;999.90;;;;;;;;;;5012156;28;20706;-68
2022/04/10 07:55:47;;;;;;;1999.90;999.90;;;;;;;;;;5012083;28;20729;-68
2022/04/10 07:58:32;;;;;;;1999.90;999.90;;;;;;;;;;5011535;28;20224;-68
2022/04/10 08:01:17;;;;;;;1999.90;999.90;;;;;;;;;;5012229;28;20201;-68
2022/04/10 08:04:03;;;;;;;1999.90;999.90;;;;;;;;;;5012316;28;20697;-68
2022/04/10 08:06:48;;;;;;;1999.90;999.90;;;;;;;;;;5021723;28;20296;-68
2022/04/10 08:09:33;;;;;;;1999.90;999.90;;;;;;;;;;5021798;28;20691;-68
2022/04/10 08:12:18;;;;;;;1999.90;999.90;;;;;;;;;;5031044;28;20814;-68
2022/04/10 08:15:03;;;;;;;1999.90;999.90;;;;;;;;;;5014059;28;20213;-68
2022/04/10 08:17:48;;;;;;;1999.90;999.90;;;;;;;;;;5021428;28;20295;-69
2022/04/10 08:20:35;;;;;;;1999.90;999.90;;;;;;;;;;5031928;28;20198;-68
2022/04/10 08:23:20;;;;;;;1999.90;999.90;;;;;;;;;;5012053;28;20281;-67
2022/04/10 08:26:04;;;;;;;1999.90;999.90;;;;;;;;;;5012151;28;20230;-66
2022/04/10 08:28:49;;;;;;;1999.90;999.90;;;;;;;;;;5010060;28;21034;-66
2022/04/10 08:31:34;;;;;;;1999.90;999.90;;;;;;;;;;5011710;28;20230;-67
2022/04/10 08:34:19;;;;;;;1999.90;999.90;;;;;;;;;;5023893;28;20218;-67
2022/04/10 08:37:06;;;;;;;1999.90;999.90;;;;;;;;;;5030084;28;20230;-67
2022/04/10 08:39:51;;;;;;;1999.90;999.90;;;;;;;;;;5015273;28;20260;-67
2022/04/10 08:42:36;;;;;;;1999.90;999.90;;;;;;;;;;5022963;28;20213;-67
2022/04/10 08:45:26;;;;;;;1999.90;999.90;;;;;;;;;;5030116;28;21228;-67
2022/04/10 08:48:12;;;;;;;1999.90;999.90;;;;;;;;;;5011022;28;20211;-66
2022/04/10 08:50:58;;;;;;;1999.90;999.90;;;;;;;;;;5011330;28;20709;-66
2022/04/10 08:53:45;;;;;;;1999.90;999.90;;;;;;;;;;5011786;28;20257;-67
2022/04/10 08:56:30;;;;;;;1999.90;999.90;;;;;;;;;;5015474;28;20306;-67
2022/04/10 08:59:15;;;;;;;1999.90;999.90;;;;;;;;;;5029116;28;20232;-67
2022/04/10 09:02:00;;;;;;;1999.90;999.90;;;;;;;;;;5033979;28;20434;-66
2022/04/10 09:04:45;;;;;;;1999.90;999.90;;;;;;;;;;5034931;28;20206;-67
2022/04/10 09:07:30;;;;;;;1999.90;999.90;;;;;;;;;;5027642;28;20736;-66
2022/04/10 09:10:16;;;;;;;1999.90;999.90;;;;;;;;;;5015470;28;20214;-66
2022/04/10 09:13:07;;;;;;;1999.90;999.90;;;;;;;;;;5014804;28;20206;-66
2022/04/10 09:15:53;;;;;;;1999.90;999.90;;;;;;;;;;5015146;28;20783;-66
2022/04/10 09:18:55;;;;;;;1999.90;999.90;;;;;;;;;;5014382;28;20210;-66
2022/04/10 09:21:43;;;;;;;1999.90;999.90;;;;;;;;;;5014878;28;20198;-67
2022/04/10 09:24:28;;;;;;;1999.90;999.90;;;;;;;;;;5015031;28;20293;-66
2022/04/10 09:27:28;;;;;;;1999.90;999.90;;;;;;;;;;5014805;28;20229;-66
2022/04/10 09:30:14;;;;;;;1999.90;999.90;;;;;;;;;;5014178;28;20937;-66
2022/04/10 09:32:59;;;;;;;1999.90;999.90;;;;;;;;;;5014674;28;20703;-66
2022/04/10 09:35:44;;;;;;;1999.90;999.90;;;;;;;;;;5014875;28;20724;-65
2022/04/10 09:38:29;;;;;;;1999.90;999.90;;;;;;;;;;5014069;28;20206;-66
2022/04/10 09:41:14;;;;;;;1999.90;999.90;;;;;;;;;;5014584;28;20203;-67
2022/04/10 09:44:01;;;;;;;1999.90;999.90;;;;;;;;;;5014682;28;20673;-67
2022/04/10 09:46:57;;;;;;;1999.90;999.90;;;;;;;;;;5013317;28;20432;-67
2022/04/10 09:49:43;;;;;;;1999.90;999.90;;;;;;;;;;5013710;28;20352;-66
2022/04/10 09:52:28;;;;;;;1999.90;999.90;;;;;;;;;;5014796;28;20235;-67
2022/04/10 09:55:28;;;;;;;1999.90;999.90;;;;;;;;;;5032940;28;20237;-67
2022/04/10 09:58:13;;;;;;;1999.90;999.90;;;;;;;;;;5017318;28;21087;-67
2022/04/10 10:01:00;;;;;;;1999.90;999.90;;;;;;;;;;5030706;28;20576;-67
2022/04/10 10:03:46;;;;;;;1999.90;999.90;;;;;;;;;;5013423;28;20206;-67
2022/04/10 10:06:35;;;;;;;1999.90;999.90;;;;;;;;;;5028528;28;20237;-67
2022/04/10 10:09:20;;;;;;;1999.90;999.90;;;;;;;;;;5019560;28;20202;-67
2022/04/10 10:12:06;;;;;;;1999.90;999.90;;;;;;;;;;5017921;28;20225;-68
2022/04/10 10:14:53;;;;;;;1999.90;999.90;;;;;;;;;;5026423;28;20206;-67
2022/04/10 10:17:39;;;;;;;1999.90;999.90;;;;;;;;;;5017576;28;20747;-66
2022/04/10 10:20:24;;;;;;;1999.90;999.90;;;;;;;;;;5029314;28;20202;-68
2022/04/10 10:23:10;;;;;;;1999.90;999.90;;;;;;;;;;5018473;28;20680;-66
2022/04/10 10:26:02;;;;;;;1999.90;999.90;;;;;;;;;;5012827;28;20223;-66
2022/04/10 10:29:01;;;;;;;1999.90;999.90;;;;;;;;;;5016547;28;20214;-66
2022/04/10 10:31:57;;;;;;;1999.90;999.90;;;;;;;;;;5018062;28;20412;-67
2022/04/10 10:34:43;;;;;;;1999.90;999.90;;;;;;;;;;5014869;28;20307;-66
2022/04/10 10:37:30;;;;;;;1999.90;999.90;;;;;;;;;;5028588;28;20233;-66
2022/04/10 10:40:17;;;;;;;1999.90;999.90;;;;;;;;;;5013890;28;20338;-66
2022/04/10 10:43:04;;;;;;;1999.90;999.90;;;;;;;;;;5022944;28;20684;-67
2022/04/10 10:45:50;;;;;;;1999.90;999.90;;;;;;;;;;5022280;28;20241;-67
2022/04/10 10:48:37;;;;;;;1999.90;999.90;;;;;;;;;;5011751;28;20206;-67
2022/04/10 10:51:49;;;;;;;1999.90;999.90;;;;;;;;;;5024019;28;20218;-66
2022/04/10 10:54:36;;;;;;;1999.90;999.90;;;;;;;;;;4967215;28;20692;-67
2022/04/10 10:57:26;;;;;;;1999.90;999.90;;;;;;;;;;5021993;28;20226;-67
2022/04/10 11:00:18;;;;;;;1999.90;999.90;;;;;;;;;;5013267;28;20210;-67
2022/04/10 11:03:08;;;;;;;1999.90;999.90;;;;;;;;;;5012805;28;20431;-67
2022/04/10 11:05:53;;;;;;;1999.90;999.90;;;;;;;;;;5023171;28;21112;-67
2022/04/10 11:08:39;;;;;;;1999.90;999.90;;;;;;;;;;5012659;28;20210;-67
2022/04/10 11:11:36;;;;;;;1999.90;999.90;;;;;;;;;;5011973;28;20231;-67
2022/04/10 11:14:34;;;;;;;1999.90;999.90;;;;;;;;;;5011958;28;20200;-68
2022/04/10 11:17:21;;;;;;;1999.90;999.90;;;;;;;;;;5019154;28;20732;-67
2022/04/10 11:20:07;;;;;;;1999.90;999.90;;;;;;;;;;5028652;28;20323;-67
2022/04/10 11:22:55;;;;;;;1999.90;999.90;;;;;;;;;;5025092;28;20266;-67
2022/04/10 11:25:48;;;;;;;1999.90;999.90;;;;;;;;;;5020306;28;20227;-68
2022/04/10 11:28:54;;;;;;;1999.90;999.90;;;;;;;;;;5020898;28;20274;-68
2022/04/10 11:31:40;;;;;;;1999.90;999.90;;;;;;;;;;5019414;28;20225;-69
2022/04/10 11:34:28;;;;;;;1999.90;999.90;;;;;;;;;;5021871;28;20345;-68
2022/04/10 11:37:21;;;;;;;1999.90;999.90;;;;;;;;;;5028568;28;20226;-66
2022/04/10 11:40:07;;;;;;;1999.90;999.90;;;;;;;;;;5011231;28;20200;-67
2022/04/10 11:42:54;;;;;;;1999.90;999.90;;;;;;;;;;5013815;28;20288;-68
2022/04/10 11:45:40;;;;;;;1999.90;999.90;;;;;;;;;;5011396;28;20207;-67
2022/04/10 11:48:25;;;;;;;1999.90;999.90;;;;;;;;;;5021852;28;20512;-68
2022/04/10 11:51:11;;;;;;;1999.90;999.90;;;;;;;;;;5021718;28;20220;-68
2022/04/10 11:53:56;;;;;;;1999.90;999.90;;;;;;;;;;5015335;28;20232;-68
2022/04/10 11:56:41;;;;;;;1999.90;999.90;;;;;;;;;;5021590;28;20227;-67
2022/04/10 11:59:25;;;;;;;1999.90;999.90;;;;;;;;;;5018033;28;20639;-67
2022/04/10 12:02:13;;;;;;;1999.90;999.90;;;;;;;;;;5029198;28;20276;-68
2022/04/10 12:05:00;;;;;;;1999.90;999.90;;;;;;;;;;5018648;28;20219;-67
2022/04/10 12:07:45;;;;;;;1999.90;999.90;;;;;;;;;;5021055;28;20224;-68
2022/04/10 12:10:31;;;;;;;1999.90;999.90;;;;;;;;;;5013983;28;20209;-68
2022/04/10 12:13:16;;;;;;;1999.90;999.90;;;;;;;;;;5026169;28;20229;-67
2022/04/10 12:16:01;;;;;;;1999.90;999.90;;;;;;;;;;5014291;28;20313;-67
2022/04/10 12:18:49;;;;;;;1999.90;999.90;;;;;;;;;;5020580;28;20481;-68
2022/04/10 12:21:33;;;;;;;1999.90;999.90;;;;;;;;;;5019695;28;20694;-68
2022/04/10 12:24:20;;;;;;;1999.90;999.90;;;;;;;;;;5023401;28;20722;-67
2022/04/10 12:27:06;;;;;;;1999.90;999.90;;;;;;;;;;5022671;28;20356;-68
2022/04/10 12:29:51;;;;;;;1999.90;999.90;;;;;;;;;;5024725;28;20204;-68
2022/04/10 12:32:36;;;;;;;1999.90;999.90;;;;;;;;;;5025938;28;20311;-66
2022/04/10 12:35:22;;;;;;;1999.90;999.90;;;;;;;;;;5024689;28;20691;-68
2022/04/10 12:38:08;;;;;;;1999.90;999.90;;;;;;;;;;5013880;28;20345;-67
2022/04/10 12:41:03;;;;;;;1999.90;999.90;;;;;;;;;;5016297;28;20216;-67
2022/04/10 12:43:50;;;;;;;1999.90;999.90;;;;;;;;;;5020900;28;21017;-67
2022/04/10 12:46:35;;;;;;;1999.90;999.90;;;;;;;;;;5021514;28;21004;-67
2022/04/10 12:49:20;;;;;;;1999.90;999.90;;;;;;;;;;5024664;28;20202;-67
2022/04/10 12:52:09;;;;;;;1999.90;999.90;;;;;;;;;;5015431;28;20260;-68
2022/04/10 12:54:54;;;;;;;1999.90;999.90;;;;;;;;;;5017361;28;20325;-67
2022/04/10 12:57:41;;;;;;;1999.90;999.90;;;;;;;;;;5015029;28;20229;-66
2022/04/10 13:00:26;;;;;;;1999.90;999.90;;;;;;;;;;5017219;28;20241;-67
2022/04/10 13:03:19;;;;;;;1999.90;999.90;;;;;;;;;;5015302;28;20300;-67
2022/04/10 13:06:05;;;;;;;1999.90;999.90;;;;;;;;;;5014756;28;20238;-67
2022/04/10 13:08:51;;;;;;;1999.90;999.90;;;;;;;;;;5014350;28;20326;-67
2022/04/10 13:11:37;;;;;;;1999.90;999.90;;;;;;;;;;5014845;28;20830;-67
2022/04/10 13:14:22;;;;;;;1999.90;999.90;;;;;;;;;;5014421;28;20452;-67
2022/04/10 13:17:07;;;;;;;1999.90;999.90;;;;;;;;;;5015042;28;20364;-67
2022/04/10 13:19:52;;;;;;;1999.90;999.90;;;;;;;;;;5017760;28;20212;-67
2022/04/10 13:22:38;;;;;;;1999.90;999.90;;;;;;;;;;5015065;28;20257;-70
2022/04/10 13:25:24;;;;;;;1999.90;999.90;;;;;;;;;;5017233;28;20687;-71
2022/04/10 13:28:09;;;;;;;1999.90;999.90;;;;;;;;;;5014113;28;20217;-72
2022/04/10 13:30:54;;;;;;;1999.90;999.90;;;;;;;;;;5014750;28;20208;-72
2022/04/10 13:33:39;;;;;;;1999.90;999.90;;;;;;;;;;5014538;28;20232;-72
2022/04/10 13:36:24;;;;;;;1999.90;999.90;;;;;;;;;;5014422;28;20227;-72
2022/04/10 13:39:09;;;;;;;1999.90;999.90;;;;;;;;;;5013873;28;20209;-71
2022/04/10 13:41:55;;;;;;;1999.90;999.90;;;;;;;;;;5013567;28;20208;-71
2022/04/10 13:44:40;;;;;;;1999.90;999.90;;;;;;;;;;5014606;28;20264;-72
2022/04/10 13:47:25;;;;;;;1999.90;999.90;;;;;;;;;;5014513;28;20282;-73
2022/04/10 13:50:10;;;;;;;1999.90;999.90;;;;;;;;;;5013460;28;20200;-72
2022/04/10 13:52:56;;;;;;;1999.90;999.90;;;;;;;;;;5014283;28;20226;-71
2022/04/10 13:55:41;;;;;;;1999.90;999.90;;;;;;;;;;5012855;28;20795;-73
2022/04/10 13:58:27;;;;;;;1999.90;999.90;;;;;;;;;;5019781;28;20211;-72
2022/04/10 14:01:12;;;;;;;1999.90;999.90;;;;;;;;;;5016020;28;20271;-72
2022/04/10 14:03:57;;;;;;;1999.90;999.90;;;;;;;;;;5021153;28;20205;-71
2022/04/10 14:06:42;;;;;;;1999.90;999.90;;;;;;;;;;5025171;28;20338;-70
2022/04/10 14:09:27;;;;;;;1999.90;999.90;;;;;;;;;;5013399;28;20206;-71
2022/04/10 14:12:12;;;;;;;1999.90;999.90;;;;;;;;;;5013955;28;20220;-71
2022/04/10 14:14:59;;;;;;;1999.90;999.90;;;;;;;;;;5014235;28;20287;-71
2022/04/10 14:17:44;;;;;;;1999.90;999.90;;;;;;;;;;5013481;28;20417;-72
2022/04/10 14:20:29;;;;;;;1999.90;999.90;;;;;;;;;;5013588;28;20300;-69
2022/04/10 14:23:14;;;;;;;1999.90;999.90;;;;;;;;;;5013836;28;20208;-72
2022/04/10 14:25:59;;;;;;;1999.90;999.90;;;;;;;;;;5013817;28;20232;-70
2022/04/10 14:28:45;;;;;;;1999.90;999.90;;;;;;;;;;5015004;28;20217;-68
2022/04/10 14:31:31;;;;;;;1999.90;999.90;;;;;;;;;;5023444;28;20287;-72
2022/04/10 14:34:17;;;;;;;1999.90;999.90;;;;;;;;;;5013276;28;20782;-73
2022/04/10 14:37:02;;;;;;;1999.90;999.90;;;;;;;;;;5019066;28;20279;-72
2022/04/10 14:39:47;;;;;;;1999.90;999.90;;;;;;;;;;5013658;28;20754;-72
2022/04/10 14:42:32;;;;;;;1999.90;999.90;;;;;;;;;;5029334;28;20229;-71
2022/04/10 14:45:17;;;;;;;1999.90;999.90;;;;;;;;;;5027404;28;20203;-72
2022/04/10 14:48:04;;;;;;;1999.90;999.90;;;;;;;;;;5013766;28;20215;-71
2022/04/10 14:50:50;;;;;;;1999.90;999.90;;;;;;;;;;5013299;28;20310;-72
2022/04/10 14:53:35;;;;;;;1999.90;999.90;;;;;;;;;;5016646;28;20686;-72
2022/04/10 14:56:20;;;;;;;1999.90;999.90;;;;;;;;;;5031595;28;20406;-72
2022/04/10 14:59:04;;;;;;;1999.90;999.90;;;;;;;;;;5023429;28;20695;-72
2022/04/10 15:01:51;;;;;;;1999.90;999.90;;;;;;;;;;5013239;28;20615;-73
2022/04/10 15:04:37;;;;;;;1999.90;999.90;;;;;;;;;;5012946;28;20586;-71
2022/04/10 15:07:22;;;;;;;1999.90;999.90;;;;;;;;;;5013019;28;20253;-71
2022/04/10 15:10:07;;;;;;;1999.90;999.90;;;;;;;;;;5011993;28;20479;-70
2022/04/10 15:12:53;;;;;;;1999.90;999.90;;;;;;;;;;5012788;28;20232;-71
2022/04/10 15:15:38;;;;;;;1999.90;999.90;;;;;;;;;;5014086;28;20582;-71
2022/04/10 15:18:23;;;;;;;1999.90;999.90;;;;;;;;;;5012986;28;20208;-70
2022/04/10 15:21:10;;;;;;;1999.90;999.90;;;;;;;;;;5014834;28;20970;-71
2022/04/10 15:23:56;;;;;;;1999.90;999.90;;;;;;;;;;5012879;28;20197;-71
2022/04/10 15:26:45;;;;;;;1999.90;999.90;;;;;;;;;;5023215;28;20229;-70
2022/04/10 15:29:30;;;;;;;1999.90;999.90;;;;;;;;;;5019232;28;20695;-70
2022/04/10 15:32:15;;;;;;;1999.90;999.90;;;;;;;;;;5012650;28;20205;-70
2022/04/10 15:35:02;;;;;;;1999.90;999.90;;;;;;;;;;5024390;28;20292;-71
2022/04/10 15:37:48;;;;;;;1999.90;999.90;;;;;;;;;;5025923;28;20631;-71
2022/04/10 15:40:33;;;;;;;1999.90;999.90;;;;;;;;;;5028780;28;20213;-70
2022/04/10 15:43:18;;;;;;;1999.90;999.90;;;;;;;;;;5012523;28;20265;-71
2022/04/10 15:46:03;;;;;;;1999.90;999.90;;;;;;;;;;5014487;28;20248;-72
2022/04/10 15:48:49;;;;;;;1999.90;999.90;;;;;;;;;;5019112;28;20410;-71
2022/04/10 15:51:34;;;;;;;1999.90;999.90;;;;;;;;;;5024932;28;20213;-70
2022/04/10 15:54:20;;;;;;;1999.90;999.90;;;;;;;;;;5021362;28;20224;-70
2022/04/10 15:57:05;;;;;;;1999.90;999.90;;;;;;;;;;5030298;28;20240;-70
2022/04/10 15:59:50;;;;;;;1999.90;999.90;;;;;;;;;;5023583;28;20583;-70
2022/04/10 16:02:36;;;;;;;1999.90;999.90;;;;;;;;;;5027449;28;20222;-70
2022/04/10 16:05:22;;;;;;;1999.90;999.90;;;;;;;;;;5024439;28;20209;-69
2022/04/10 16:08:09;;;;;;;1999.90;999.90;;;;;;;;;;5014171;28;20300;-70
2022/04/10 16:10:56;;;;;;;1999.90;999.90;;;;;;;;;;5011090;28;20210;-70
2022/04/10 16:13:40;;;;;;;1999.90;999.90;;;;;;;;;;5024269;28;20220;-70
2022/04/10 16:16:26;;;;;;;1999.90;999.90;;;;;;;;;;5016252;28;20243;-69
2022/04/10 16:19:10;;;;;;;1999.90;999.90;;;;;;;;;;5019583;28;20559;-69
2022/04/10 16:21:56;;;;;;;1999.90;999.90;;;;;;;;;;5012641;28;20220;-71
2022/04/10 16:24:41;;;;;;;1999.90;999.90;;;;;;;;;;5015158;28;20231;-70
2022/04/10 16:30:30;;;;;;;1999.90;999.90;;;;;;;;;;5025685;28;20217;-71
2022/04/10 16:33:14;;;;;;;1999.90;999.90;;;;;;;;;;5014161;28;20295;-70
2022/04/10 16:35:59;;;;;;;1999.90;999.90;;;;;;;;;;5016833;28;20565;-70
2022/04/10 16:38:44;;;;;;;1999.90;999.90;;;;;;;;;;5021673;28;20344;-71
2022/04/10 16:41:29;;;;;;;1999.90;999.90;;;;;;;;;;5011012;28;20208;-70
2022/04/10 16:44:15;;;;;;;1999.90;999.90;;;;;;;;;;5027618;28;20566;-70
2022/04/10 16:47:01;;;;;;;1999.90;999.90;;;;;;;;;;5024471;28;20363;-70
2022/04/10 16:49:46;;;;;;;1999.90;999.90;;;;;;;;;;5011830;28;20210;-70
2022/04/10 16:52:31;;;;;;;1999.90;999.90;;;;;;;;;;5015203;28;20205;-71
2022/04/10 16:55:16;;;;;;;1999.90;999.90;;;;;;;;;;5023592;28;20585;-70
2022/04/10 16:58:01;;;;;;;1999.90;999.90;;;;;;;;;;5011009;28;20227;-70
2022/04/10 17:00:48;;;;;;;1999.90;999.90;;;;;;;;;;5011871;28;20209;-71
2022/04/10 17:03:33;;;;;;;1999.90;999.90;;;;;;;;;;5018122;28;20576;-70
2022/04/10 17:06:18;;;;;;;1999.90;999.90;;;;;;;;;;5023629;28;21115;-71
2022/04/10 17:09:02;;;;;;;1999.90;999.90;;;;;;;;;;5018119;28;20703;-71
2022/04/10 17:11:47;;;;;;;1999.90;999.90;;;;;;;;;;5026446;28;20211;-70
2022/04/10 17:14:32;;;;;;;1999.90;999.90;;;;;;;;;;5011757;28;20696;-71
2022/04/10 17:17:18;;;;;;;1999.90;999.90;;;;;;;;;;5014802;28;20232;-71
2022/04/10 17:20:05;;;;;;;1999.90;999.90;;;;;;;;;;5018008;28;20215;-71
2022/04/10 17:22:50;;;;;;;1999.90;999.90;;;;;;;;;;5034705;28;20210;-71
2022/04/10 17:25:34;;;;;;;1999.90;999.90;;;;;;;;;;5023417;28;20207;-71
2022/04/10 17:28:21;;;;;;;1999.90;999.90;;;;;;;;;;5034193;28;20207;-71
2022/04/10 17:31:06;;;;;;;1999.90;999.90;;;;;;;;;;5034307;28;20413;-71
2022/04/10 17:33:52;;;;;;;1999.90;999.90;;;;;;;;;;5034310;28;20604;-71
2022/04/10 17:36:37;;;;;;;1999.90;999.90;;;;;;;;;;5014916;28;20229;-70
2022/04/10 17:39:22;;;;;;;1999.90;999.90;;;;;;;;;;5014438;28;20715;-71
2022/04/10 17:42:07;;;;;;;1999.90;999.90;;;;;;;;;;5019435;28;20310;-71
2022/04/10 17:44:52;;;;;;;1999.90;999.90;;;;;;;;;;5033907;28;20509;-71
2022/04/10 17:47:38;;;;;;;1999.90;999.90;;;;;;;;;;5021309;28;20364;-70
2022/04/10 17:50:25;;;;;;;1999.90;999.90;;;;;;;;;;5021130;28;20283;-70
2022/04/10 17:53:10;;;;;;;1999.90;999.90;;;;;;;;;;5034204;28;20614;-72
2022/04/10 17:55:55;;;;;;;1999.90;999.90;;;;;;;;;;5029062;28;20241;-71
2022/04/10 17:58:40;;;;;;;1999.90;999.90;;;;;;;;;;5013840;28;20587;-69
2022/04/10 18:01:24;;;;;;;1999.90;999.90;;;;;;;;;;5014390;28;20211;-69
2022/04/10 18:04:09;;;;;;;1999.90;999.90;;;;;;;;;;5014559;28;20348;-70
2022/04/10 18:06:56;;;;;;;1999.90;999.90;;;;;;;;;;5014108;28;20728;-69
2022/04/10 18:09:41;;;;;;;1999.90;999.90;;;;;;;;;;5013676;28;20207;-69
2022/04/10 18:12:26;;;;;;;1999.90;999.90;;;;;;;;;;5014082;28;20273;-70
2022/04/10 18:15:11;;;;;;;1999.90;999.90;;;;;;;;;;5013989;28;20278;-72
2022/04/10 18:17:56;;;;;;;1999.90;999.90;;;;;;;;;;5020635;28;20585;-69
2022/04/10 18:20:41;;;;;;;1999.90;999.90;;;;;;;;;;5034024;28;20567;-69
2022/04/10 18:23:28;;;;;;;1999.90;999.90;;;;;;;;;;5033282;28;20939;-69
2022/04/10 18:26:14;;;;;;;1999.90;999.90;;;;;;;;;;5033704;28;20357;-70
2022/04/10 18:28:59;;;;;;;1999.90;999.90;;;;;;;;;;5023612;28;20202;-68
2022/04/10 18:31:44;;;;;;;1999.90;999.90;;;;;;;;;;5015373;28;20688;-71
2022/04/10 18:34:28;;;;;;;1999.90;999.90;;;;;;;;;;5013720;28;20596;-70
2022/04/10 18:37:13;;;;;;;1999.90;999.90;;;;;;;;;;5013755;28;20232;-70